Time;durP1;ratioP1;P1;durP2;ratioP2;P2;SDS_P1;SDS_P2;PMS_P1;PMS_P2;Temp;Humidity;BMP_temperature;BMP_pressure;BME280_temperature;BME280_humidity;BME280_pressure;Samples;Min_cycle;Max_cycle;Signal;HPM_P1;HPM_P2
2024/01/08 00:02:03;;;;;;;;;;;3.80;99.90;;;;;;5034209;28;19958;-77
2024/01/08 00:04:28;;;;;;;;;;;3.70;99.90;;;;;;5052481;28;20322;-78
2024/01/08 00:06:54;;;;;;;;;;;3.70;99.90;;;;;;5052472;28;20011;-77
2024/01/08 00:09:20;;;;;;;;;;;3.70;99.90;;;;;;5034724;28;19911;-78
2024/01/08 00:11:46;;;;;;;;;;;3.70;99.90;;;;;;5034803;28;19915;-77
2024/01/08 00:14:11;;;;;;;;;;;3.70;99.90;;;;;;5034503;28;19908;-77
2024/01/08 00:16:37;;;;;;;;;;;3.70;99.90;;;;;;5034308;28;19915;-77
2024/01/08 00:19:02;;;;;;;;;;;3.70;99.90;;;;;;5057266;28;19931;-77
2024/01/08 00:21:28;;;;;;;;;;;3.80;99.90;;;;;;5055554;28;19958;-77
2024/01/08 00:23:54;;;;;;;;;;;3.80;99.90;;;;;;5075245;28;19998;-77
2024/01/08 00:26:20;;;;;;;;;;;3.80;99.90;;;;;;5058332;28;20460;-77
2024/01/08 00:28:45;;;;;;;;;;;3.70;99.90;;;;;;5057702;28;19905;-77
2024/01/08 00:31:11;;;;;;;;;;;3.80;99.90;;;;;;5058258;28;19912;-78
2024/01/08 00:33:36;;;;;;;;;;;3.70;99.90;;;;;;5064382;28;19909;-78
2024/01/08 00:36:02;;;;;;;;;;;3.80;99.90;;;;;;5047903;28;19920;-77
2024/01/08 00:38:27;;;;;;;;;;;3.70;99.90;;;;;;5054767;28;19952;-79
2024/01/08 00:40:53;;;;;;;;;;;3.70;99.90;;;;;;5048709;28;19909;-77
2024/01/08 00:43:18;;;;;;;;;;;3.80;99.90;;;;;;5037044;28;19975;-78
2024/01/08 00:45:44;;;;;;;;;;;3.80;99.90;;;;;;5036832;28;19913;-76
2024/01/08 00:48:09;;;;;;;;;;;3.80;99.90;;;;;;5069524;28;19995;-77
2024/01/08 00:50:35;;;;;;;;;;;3.80;99.90;;;;;;5063324;28;20392;-76
2024/01/08 00:53:00;;;;;;;;;;;3.80;99.90;;;;;;5046575;28;19920;-77
2024/01/08 00:55:26;;;;;;;;;;;3.80;99.90;;;;;;5056503;28;19948;-76
2024/01/08 00:57:51;;;;;;;;;;;3.70;99.90;;;;;;5074325;28;20340;-79
2024/01/08 01:00:17;;;;;;;;;;;3.70;99.90;;;;;;5057888;28;20374;-77
2024/01/08 01:02:42;;;;;;;;;;;3.70;99.90;;;;;;5058432;28;19911;-78
2024/01/08 01:05:08;;;;;;;;;;;3.80;99.90;;;;;;5076935;28;20006;-78
2024/01/08 01:07:33;;;;;;;;;;;3.70;99.90;;;;;;5058328;28;19908;-78
2024/01/08 01:09:59;;;;;;;;;;;3.60;99.90;;;;;;5059325;28;19904;-79
2024/01/08 01:12:24;;;;;;;;;;;3.70;99.90;;;;;;5076794;28;19958;-78
2024/01/08 01:14:50;;;;;;;;;;;3.60;99.90;;;;;;5076983;28;19912;-78
2024/01/08 01:17:15;;;;;;;;;;;3.70;99.90;;;;;;5059139;28;19914;-78
2024/01/08 01:19:41;;;;;;;;;;;3.50;99.90;;;;;;5078464;28;19913;-79
2024/01/08 01:22:06;;;;;;;;;;;3.60;99.90;;;;;;5061762;28;20450;-79
2024/01/08 01:24:32;;;;;;;;;;;3.60;99.90;;;;;;5062236;28;20384;-79
2024/01/08 01:26:57;;;;;;;;;;;3.50;99.90;;;;;;5062791;28;19908;-78
2024/01/08 01:29:23;;;;;;;;;;;3.60;99.90;;;;;;5082098;28;19931;-79
2024/01/08 01:31:48;;;;;;;;;;;3.60;99.90;;;;;;5081696;28;20361;-79
2024/01/08 01:34:15;;;;;;;;;;;3.60;99.90;;;;;;5061742;28;19920;-79
2024/01/08 01:36:41;;;;;;;;;;;3.50;99.90;;;;;;5045713;28;19912;-80
2024/01/08 01:39:06;;;;;;;;;;;3.70;99.90;;;;;;5060325;28;19978;-78
2024/01/08 01:41:32;;;;;;;;;;;3.60;99.90;;;;;;5058019;28;19971;-79
2024/01/08 01:43:58;;;;;;;;;;;3.70;99.90;;;;;;5066546;28;19911;-79
2024/01/08 01:46:44;;;;;;;;;;;3.60;99.90;;;;;;5083905;28;19912;-79
2024/01/08 01:49:14;;;;;;;;;;;3.50;99.90;;;;;;5056838;28;20056;-79
2024/01/08 01:51:41;;;;;;;;;;;3.40;99.90;;;;;;5040283;28;20292;-79
2024/01/08 01:54:07;;;;;;;;;;;3.30;99.90;;;;;;5054385;28;19912;-79
2024/01/08 01:56:33;;;;;;;;;;;3.40;99.90;;;;;;5046420;28;20414;-79
2024/01/08 01:59:01;;;;;;;;;;;3.40;99.90;;;;;;5076529;28;19904;-78
2024/01/08 02:01:27;;;;;;;;;;;3.40;99.90;;;;;;5058461;28;20356;-78
2024/01/08 02:03:52;;;;;;;;;;;3.50;99.90;;;;;;5059213;28;19908;-78
2024/01/08 02:06:20;;;;;;;;;;;3.50;99.90;;;;;;5058037;28;19913;-79
2024/01/08 02:08:45;;;;;;;;;;;3.50;99.90;;;;;;5058181;28;20023;-78
2024/01/08 02:11:11;;;;;;;;;;;3.40;99.90;;;;;;5074972;28;20428;-78
2024/01/08 02:13:37;;;;;;;;;;;3.30;99.90;;;;;;5056356;28;19929;-79
2024/01/08 02:16:02;;;;;;;;;;;3.20;99.90;;;;;;5074931;28;19912;-78
2024/01/08 02:18:29;;;;;;;;;;;3.30;99.90;;;;;;5056905;28;19916;-78
2024/01/08 02:20:55;;;;;;;;;;;3.30;99.90;;;;;;5056533;28;19970;-78
2024/01/08 02:23:20;;;;;;;;;;;3.30;99.90;;;;;;5056512;28;19906;-78
2024/01/08 02:25:46;;;;;;;;;;;3.40;99.90;;;;;;5069069;28;20308;-77
2024/01/08 02:28:11;;;;;;;;;;;3.40;99.90;;;;;;5043625;28;19915;-78
2024/01/08 02:30:37;;;;;;;;;;;3.40;99.90;;;;;;5056066;28;19974;-78
2024/01/08 02:33:03;;;;;;;;;;;3.30;99.90;;;;;;5055827;28;19911;-78
2024/01/08 02:35:29;;;;;;;;;;;3.40;99.90;;;;;;5073536;28;19959;-78
2024/01/08 02:37:54;;;;;;;;;;;3.20;99.90;;;;;;5055320;28;19904;-79
2024/01/08 02:40:20;;;;;;;;;;;3.20;99.90;;;;;;5073868;28;20352;-78
2024/01/08 02:42:45;;;;;;;;;;;3.10;99.90;;;;;;5055532;28;19951;-78
2024/01/08 02:45:10;;;;;;;;;;;3.00;99.90;;;;;;5074139;28;19909;-78
2024/01/08 02:47:40;;;;;;;;;;;3.10;99.90;;;;;;5073525;28;19999;-78
2024/01/08 02:50:09;;;;;;;;;;;3.00;99.90;;;;;;5055764;28;19916;-78
2024/01/08 02:52:35;;;;;;;;;;;2.90;99.90;;;;;;5076152;28;20034;-78
2024/01/08 02:55:00;;;;;;;;;;;2.80;99.90;;;;;;5078486;28;19947;-78
2024/01/08 02:57:26;;;;;;;;;;;2.80;99.90;;;;;;5060014;28;19947;-78
2024/01/08 02:59:52;;;;;;;;;;;2.90;99.90;;;;;;5060249;28;19913;-77
2024/01/08 03:02:17;;;;;;;;;;;2.80;99.90;;;;;;5058564;28;20426;-77
2024/01/08 03:04:43;;;;;;;;;;;2.80;99.90;;;;;;5076745;28;19904;-77
2024/01/08 03:07:08;;;;;;;;;;;2.90;99.90;;;;;;5076739;28;19970;-77
2024/01/08 03:09:34;;;;;;;;;;;2.90;99.90;;;;;;5058893;28;19912;-77
2024/01/08 03:11:59;;;;;;;;;;;2.90;99.90;;;;;;5076761;28;19911;-77
2024/01/08 03:14:25;;;;;;;;;;;3.10;99.90;;;;;;5077025;28;19904;-77
2024/01/08 03:16:50;;;;;;;;;;;2.90;99.90;;;;;;5058901;28;20357;-77
2024/01/08 03:19:16;;;;;;;;;;;3.00;99.90;;;;;;5058765;28;19908;-77
2024/01/08 03:21:41;;;;;;;;;;;3.00;99.90;;;;;;5077047;28;19919;-77
2024/01/08 03:24:07;;;;;;;;;;;3.00;99.90;;;;;;5076828;28;19904;-77
2024/01/08 03:26:32;;;;;;;;;;;3.00;99.90;;;;;;5059038;28;19912;-77
2024/01/08 03:28:58;;;;;;;;;;;3.10;99.90;;;;;;5058844;28;20407;-77
2024/01/08 03:31:23;;;;;;;;;;;3.10;99.90;;;;;;5059478;28;19954;-77
2024/01/08 03:33:49;;;;;;;;;;;3.10;99.90;;;;;;5076976;28;20353;-77
2024/01/08 03:36:14;;;;;;;;;;;3.20;99.90;;;;;;5076558;28;19966;-77
2024/01/08 03:38:40;;;;;;;;;;;3.10;99.90;;;;;;5059042;28;19958;-77
2024/01/08 03:41:06;;;;;;;;;;;3.10;99.90;;;;;;5076618;28;19915;-77
2024/01/08 03:43:32;;;;;;;;;;;3.10;99.90;;;;;;5058687;28;19948;-76
2024/01/08 03:45:57;;;;;;;;;;;3.30;99.90;;;;;;5077001;28;19912;-76
2024/01/08 03:48:23;;;;;;;;;;;3.30;99.90;;;;;;5076991;28;19950;-77
2024/01/08 03:50:48;;;;;;;;;;;3.10;99.90;;;;;;5059042;28;20437;-79
2024/01/08 03:53:14;;;;;;;;;;;3.20;99.90;;;;;;5058898;28;20011;-77
2024/01/08 03:55:39;;;;;;;;;;;3.20;99.90;;;;;;5059124;28;19915;-77
2024/01/08 03:58:04;;;;;;;;;;;3.10;99.90;;;;;;5077194;28;19911;-77
2024/01/08 04:00:30;;;;;;;;;;;2.90;99.90;;;;;;5077022;28;19904;-77
2024/01/08 04:02:55;;;;;;;;;;;2.90;99.90;;;;;;5059484;28;19911;-76
2024/01/08 04:05:21;;;;;;;;;;;2.80;99.90;;;;;;5076871;28;19928;-78
2024/01/08 04:07:46;;;;;;;;;;;2.70;99.90;;;;;;5063869;28;19908;-78
2024/01/08 04:10:12;;;;;;;;;;;2.90;99.90;;;;;;5074538;28;20280;-77
2024/01/08 04:12:38;;;;;;;;;;;2.90;99.90;;;;;;5037526;28;19905;-78
2024/01/08 04:15:03;;;;;;;;;;;3.00;99.90;;;;;;5054873;28;19905;-78
2024/01/08 04:17:29;;;;;;;;;;;2.90;99.90;;;;;;5055370;28;19905;-78
2024/01/08 04:19:54;;;;;;;;;;;3.00;99.90;;;;;;5055177;28;19908;-78
2024/01/08 04:22:20;;;;;;;;;;;3.00;99.90;;;;;;5036627;28;19995;-78
2024/01/08 04:24:45;;;;;;;;;;;3.00;99.90;;;;;;5062535;28;20054;-77
2024/01/08 04:27:11;;;;;;;;;;;2.90;99.90;;;;;;5036486;28;19962;-78
2024/01/08 04:29:36;;;;;;;;;;;2.70;99.90;;;;;;5054597;28;20376;-77
2024/01/08 04:32:03;;;;;;;;;;;2.80;99.90;;;;;;5054860;28;19904;-77
2024/01/08 04:34:28;;;;;;;;;;;2.80;99.90;;;;;;5054463;28;20448;-77
2024/01/08 04:36:54;;;;;;;;;;;2.70;99.90;;;;;;5036552;28;19992;-77
2024/01/08 04:39:19;;;;;;;;;;;2.80;99.90;;;;;;5054659;28;19904;-77
2024/01/08 04:41:45;;;;;;;;;;;2.80;99.90;;;;;;5053884;28;19904;-77
2024/01/08 04:44:10;;;;;;;;;;;2.80;99.90;;;;;;5054496;28;19909;-77
2024/01/08 04:46:36;;;;;;;;;;;2.70;99.90;;;;;;5054405;28;19917;-76
2024/01/08 04:49:05;;;;;;;;;;;2.70;99.90;;;;;;5053813;28;19915;-77
2024/01/08 04:51:30;;;;;;;;;;;2.70;99.90;;;;;;5054367;28;19904;-77
2024/01/08 04:53:56;;;;;;;;;;;2.80;99.90;;;;;;5035733;28;19905;-77
2024/01/08 04:56:23;;;;;;;;;;;2.90;99.90;;;;;;5036309;28;19920;-77
2024/01/08 04:58:49;;;;;;;;;;;2.60;99.90;;;;;;5061985;28;20376;-77
2024/01/08 05:01:14;;;;;;;;;;;2.50;99.90;;;;;;5074389;28;19904;-77
2024/01/08 05:03:41;;;;;;;;;;;2.50;99.90;;;;;;5074578;28;19911;-77
2024/01/08 05:06:06;;;;;;;;;;;2.40;99.90;;;;;;5055847;28;20415;-77
2024/01/08 05:08:32;;;;;;;;;;;2.50;99.90;;;;;;5073967;28;19912;-78
2024/01/08 05:10:57;;;;;;;;;;;2.40;99.90;;;;;;5055908;28;19904;-77
2024/01/08 05:13:23;;;;;;;;;;;2.50;99.90;;;;;;5073938;28;19905;-77
2024/01/08 05:15:48;;;;;;;;;;;2.60;99.90;;;;;;5055009;28;19905;-77
2024/01/08 05:18:14;;;;;;;;;;;2.60;99.90;;;;;;5055688;28;20315;-77
2024/01/08 05:20:39;;;;;;;;;;;2.70;99.90;;;;;;5073921;28;19951;-77
2024/01/08 05:23:05;;;;;;;;;;;2.50;99.90;;;;;;5074185;28;19927;-77
2024/01/08 05:25:34;;;;;;;;;;;2.50;99.90;;;;;;5074417;28;19948;-77
2024/01/08 05:28:00;;;;;;;;;;;2.50;99.90;;;;;;5072610;28;19991;-77
2024/01/08 05:30:25;;;;;;;;;;;2.50;99.90;;;;;;5055600;28;20355;-76
2024/01/08 05:32:53;;;;;;;;;;;2.50;99.90;;;;;;5052196;28;20364;-76
2024/01/08 05:35:18;;;;;;;;;;;2.50;99.90;;;;;;5035918;28;20611;-76
2024/01/08 05:37:44;;;;;;;;;;;2.40;99.90;;;;;;5035503;28;19915;-76
2024/01/08 05:40:10;;;;;;;;;;;2.30;99.90;;;;;;5053285;28;19905;-76
2024/01/08 05:42:35;;;;;;;;;;;2.40;99.90;;;;;;5036073;28;19998;-77
2024/01/08 05:45:01;;;;;;;;;;;2.40;99.90;;;;;;5054064;28;19944;-77
2024/01/08 05:47:26;;;;;;;;;;;2.50;99.90;;;;;;5054044;28;19980;-77
2024/01/08 05:49:52;;;;;;;;;;;2.50;99.90;;;;;;5044707;28;20393;-77
2024/01/08 05:52:17;;;;;;;;;;;2.50;99.90;;;;;;5036274;28;19945;-77
2024/01/08 05:54:43;;;;;;;;;;;2.50;99.90;;;;;;5053664;28;19905;-77
2024/01/08 05:57:09;;;;;;;;;;;2.50;99.90;;;;;;5054079;28;19912;-77
2024/01/08 05:59:34;;;;;;;;;;;2.40;99.90;;;;;;5036367;28;20365;-76
2024/01/08 06:02:00;;;;;;;;;;;2.50;99.90;;;;;;5053842;28;19951;-77
2024/01/08 06:04:25;;;;;;;;;;;2.40;99.90;;;;;;5063652;28;19912;-76
2024/01/08 06:06:52;;;;;;;;;;;2.30;99.90;;;;;;5073584;28;19955;-77
2024/01/08 06:09:18;;;;;;;;;;;2.30;99.90;;;;;;5074585;28;19962;-77
2024/01/08 06:11:43;;;;;;;;;;;2.30;99.90;;;;;;5058450;28;19904;-78
2024/01/08 06:14:09;;;;;;;;;;;2.30;99.90;;;;;;5059135;28;19917;-78
2024/01/08 06:16:35;;;;;;;;;;;2.40;99.90;;;;;;5061299;28;19912;-77
2024/01/08 06:19:02;;;;;;;;;;;2.50;99.90;;;;;;5078441;28;19930;-78
2024/01/08 06:21:27;;;;;;;;;;;2.40;99.90;;;;;;5077831;28;19916;-76
2024/01/08 06:23:53;;;;;;;;;;;2.50;99.90;;;;;;5075370;28;19927;-77
2024/01/08 06:26:19;;;;;;;;;;;2.50;99.90;;;;;;5075221;28;19927;-77
2024/01/08 06:28:45;;;;;;;;;;;2.50;99.90;;;;;;5059804;28;19947;-76
2024/01/08 06:31:10;;;;;;;;;;;2.50;99.90;;;;;;5075988;28;19947;-77
2024/01/08 06:33:37;;;;;;;;;;;2.50;99.90;;;;;;5057912;28;19905;-76
2024/01/08 06:36:03;;;;;;;;;;;2.40;99.90;;;;;;5057988;28;19939;-77
2024/01/08 06:38:28;;;;;;;;;;;2.40;99.90;;;;;;5075767;28;20368;-77
2024/01/08 06:40:54;;;;;;;;;;;2.30;99.90;;;;;;5057614;28;19911;-75
2024/01/08 06:43:19;;;;;;;;;;;2.40;99.90;;;;;;5060978;28;20376;-77
2024/01/08 06:45:45;;;;;;;;;;;2.50;99.90;;;;;;5037540;28;19919;-77
2024/01/08 06:48:11;;;;;;;;;;;2.30;99.90;;;;;;5037744;28;19908;-77
2024/01/08 06:50:37;;;;;;;;;;;2.40;99.90;;;;;;5038224;28;19908;-77
2024/01/08 06:53:02;;;;;;;;;;;2.40;99.90;;;;;;5070831;28;20372;-76
2024/01/08 06:55:28;;;;;;;;;;;2.30;99.90;;;;;;5075966;28;19915;-76
2024/01/08 06:57:54;;;;;;;;;;;2.40;99.90;;;;;;5048210;28;19915;-77
2024/01/08 07:00:20;;;;;;;;;;;2.30;99.90;;;;;;5055595;28;20399;-76
2024/01/08 07:02:46;;;;;;;;;;;2.30;99.90;;;;;;5076117;28;19960;-76
2024/01/08 07:05:12;;;;;;;;;;;2.30;99.90;;;;;;5057953;28;19909;-76
2024/01/08 07:07:37;;;;;;;;;;;2.30;99.90;;;;;;5075924;28;19915;-77
2024/01/08 07:10:04;;;;;;;;;;;2.40;99.90;;;;;;5076013;28;19995;-77
2024/01/08 07:12:29;;;;;;;;;;;2.40;99.90;;;;;;5075457;28;19904;-77
2024/01/08 07:14:55;;;;;;;;;;;2.50;99.90;;;;;;5058034;28;19916;-77
2024/01/08 07:17:21;;;;;;;;;;;2.50;99.90;;;;;;5075704;28;19904;-77
2024/01/08 07:19:46;;;;;;;;;;;2.50;99.90;;;;;;5057930;28;20392;-77
2024/01/08 07:22:12;;;;;;;;;;;2.50;99.90;;;;;;5057616;28;19962;-78
2024/01/08 07:24:38;;;;;;;;;;;2.50;99.90;;;;;;5075483;28;20365;-76
2024/01/08 07:27:04;;;;;;;;;;;2.60;99.90;;;;;;5057479;28;20385;-76
2024/01/08 07:29:29;;;;;;;;;;;2.60;99.90;;;;;;5058180;28;19956;-76
2024/01/08 07:31:55;;;;;;;;;;;2.60;99.90;;;;;;5057790;28;20479;-76
2024/01/08 07:34:20;;;;;;;;;;;2.70;99.90;;;;;;5057549;28;20369;-76
2024/01/08 07:36:46;;;;;;;;;;;2.80;99.90;;;;;;5058048;28;19904;-77
2024/01/08 07:39:15;;;;;;;;;;;2.70;99.90;;;;;;5057147;28;19932;-76
2024/01/08 07:41:41;;;;;;;;;;;2.80;99.90;;;;;;5058556;28;19919;-77
2024/01/08 07:44:07;;;;;;;;;;;2.80;99.90;;;;;;5075683;28;19944;-77
2024/01/08 07:46:32;;;;;;;;;;;2.70;99.90;;;;;;5058207;28;20265;-76
2024/01/08 07:48:58;;;;;;;;;;;2.70;99.90;;;;;;5076195;28;20448;-76
2024/01/08 07:51:24;;;;;;;;;;;2.80;99.90;;;;;;5056632;28;19999;-77
2024/01/08 07:53:50;;;;;;;;;;;2.80;99.90;;;;;;5058341;28;19905;-78
2024/01/08 07:56:16;;;;;;;;;;;2.80;99.90;;;;;;5075612;28;19905;-75
2024/01/08 07:58:42;;;;;;;;;;;2.80;99.90;;;;;;5057598;28;19920;-76
2024/01/08 08:01:12;;;;;;;;;;;2.80;99.90;;;;;;5057416;28;19927;-76
2024/01/08 08:03:38;;;;;;;;;;;3.00;99.90;;;;;;5057309;28;19904;-76
2024/01/08 08:06:03;;;;;;;;;;;3.00;99.90;;;;;;5075402;28;20145;-76
2024/01/08 08:08:31;;;;;;;;;;;2.90;99.90;;;;;;5075037;28;20647;-77
2024/01/08 08:10:58;;;;;;;;;;;2.80;99.90;;;;;;5076599;28;20465;-76
2024/01/08 08:13:24;;;;;;;;;;;2.90;99.90;;;;;;5059334;28;20479;-77
2024/01/08 08:15:49;;;;;;;;;;;2.90;99.90;;;;;;5059927;28;19951;-76
2024/01/08 08:18:15;;;;;;;;;;;2.90;99.90;;;;;;5078051;28;20002;-76
2024/01/08 08:20:41;;;;;;;;;;;3.00;99.90;;;;;;5077977;28;19927;-76
2024/01/08 08:23:06;;;;;;;;;;;3.10;99.90;;;;;;5059736;28;19904;-76
2024/01/08 08:25:32;;;;;;;;;;;2.90;99.90;;;;;;5060156;28;19908;-77
2024/01/08 08:27:57;;;;;;;;;;;3.00;99.90;;;;;;5058225;28;19915;-76
2024/01/08 08:30:24;;;;;;;;;;;3.00;99.90;;;;;;5058286;28;20400;-76
2024/01/08 08:32:50;;;;;;;;;;;3.10;99.90;;;;;;5057733;28;20406;-76
2024/01/08 08:35:16;;;;;;;;;;;3.20;99.90;;;;;;5057347;28;20056;-76
2024/01/08 08:37:41;;;;;;;;;;;3.10;99.90;;;;;;5057550;28;20387;-76
2024/01/08 08:40:07;;;;;;;;;;;3.00;99.90;;;;;;5077425;28;19904;-76
2024/01/08 08:42:32;;;;;;;;;;;3.10;99.90;;;;;;5076577;28;19943;-76
2024/01/08 08:44:58;;;;;;;;;;;3.10;99.90;;;;;;5073760;28;19954;-76
2024/01/08 08:47:23;;;;;;;;;;;3.20;99.90;;;;;;5055724;28;20399;-76
2024/01/08 08:49:49;;;;;;;;;;;3.20;99.90;;;;;;5072895;28;19904;-76
2024/01/08 08:52:14;;;;;;;;;;;3.20;99.90;;;;;;5055464;28;20011;-74
2024/01/08 08:54:40;;;;;;;;;;;3.20;99.90;;;;;;5073172;28;19904;-76
2024/01/08 08:57:05;;;;;;;;;;;3.30;99.90;;;;;;5057147;28;19910;-76
2024/01/08 08:59:31;;;;;;;;;;;3.40;99.90;;;;;;5057731;28;19965;-76
2024/01/08 09:01:57;;;;;;;;;;;3.60;99.90;;;;;;5075045;28;20395;-76
2024/01/08 09:04:23;;;;;;;;;;;3.40;99.90;;;;;;5057491;28;20253;-76
2024/01/08 09:06:48;;;;;;;;;;;3.50;99.90;;;;;;5058094;28;19924;-76
2024/01/08 09:09:14;;;;;;;;;;;3.40;99.90;;;;;;5076809;28;19904;-76
2024/01/08 09:11:40;;;;;;;;;;;3.40;99.90;;;;;;5075837;28;20392;-76
2024/01/08 09:14:07;;;;;;;;;;;3.40;99.90;;;;;;5073115;28;19911;-76
2024/01/08 09:16:33;;;;;;;;;;;3.60;99.90;;;;;;5054746;28;19908;-76
2024/01/08 09:18:58;;;;;;;;;;;3.90;99.90;;;;;;5073477;28;19962;-76
2024/01/08 09:21:24;;;;;;;;;;;3.70;99.90;;;;;;5073129;28;19908;-76
2024/01/08 09:23:49;;;;;;;;;;;3.80;98.20;;;;;;5073331;28;19999;-76
2024/01/08 09:26:15;;;;;;;;;;;3.70;99.90;;;;;;5055678;28;20011;-77
2024/01/08 09:28:41;;;;;;;;;;;3.60;99.90;;;;;;5076632;28;19904;-76
2024/01/08 09:31:07;;;;;;;;;;;3.40;99.90;;;;;;5058322;28;19945;-76
2024/01/08 09:33:32;;;;;;;;;;;3.40;99.90;;;;;;5058232;28;19908;-76
2024/01/08 09:35:58;;;;;;;;;;;3.50;99.90;;;;;;5058402;28;19936;-77
2024/01/08 09:38:23;;;;;;;;;;;3.50;99.90;;;;;;5058131;28;20046;-77
2024/01/08 09:40:49;;;;;;;;;;;3.80;99.90;;;;;;5075195;28;20475;-77
2024/01/08 09:43:15;;;;;;;;;;;3.80;95.40;;;;;;5054221;28;19908;-75
2024/01/08 09:45:47;;;;;;;;;;;4.00;95.30;;;;;;5054215;28;19912;-76
2024/01/08 09:48:13;;;;;;;;;;;4.00;94.50;;;;;;5054250;28;20285;-76
2024/01/08 09:50:38;;;;;;;;;;;3.70;96.50;;;;;;5054278;28;19931;-76
2024/01/08 09:53:04;;;;;;;;;;;3.60;96.40;;;;;;5054006;28;20389;-76
2024/01/08 09:55:30;;;;;;;;;;;3.70;94.70;;;;;;5071918;28;20288;-76
2024/01/08 09:57:55;;;;;;;;;;;3.50;95.00;;;;;;5054024;28;20420;-76
2024/01/08 10:00:21;;;;;;;;;;;3.30;95.90;;;;;;5072429;28;19911;-76
2024/01/08 10:02:53;;;;;;;;;;;3.30;96.40;;;;;;5053264;28;20296;-76
2024/01/08 10:05:19;;;;;;;;;;;3.20;96.80;;;;;;5054583;28;19950;-76
2024/01/08 10:07:45;;;;;;;;;;;3.50;95.80;;;;;;5054565;28;19912;-76
2024/01/08 10:10:10;;;;;;;;;;;3.70;94.80;;;;;;5053609;28;20035;-76
2024/01/08 10:12:36;;;;;;;;;;;3.60;94.40;;;;;;5053950;28;19990;-76
2024/01/08 10:15:02;;;;;;;;;;;3.60;95.20;;;;;;5054076;28;20384;-77
2024/01/08 10:17:29;;;;;;;;;;;3.70;93.40;;;;;;5054304;28;19904;-77
2024/01/08 10:20:04;;;;;;;;;;;3.70;93.60;;;;;;5054228;28;19951;-76
2024/01/08 10:22:30;;;;;;;;;;;3.60;95.60;;;;;;5054444;28;19913;-76
2024/01/08 10:25:00;;;;;;;;;;;3.70;93.70;;;;;;5072370;28;19908;-76
2024/01/08 10:27:26;;;;;;;;;;;3.70;94.40;;;;;;5054491;28;19951;-76
2024/01/08 10:29:51;;;;;;;;;;;3.70;94.60;;;;;;5054544;28;19916;-75
2024/01/08 10:32:17;;;;;;;;;;;3.70;93.40;;;;;;5072956;28;20423;-76
2024/01/08 10:34:44;;;;;;;;;;;3.50;92.30;;;;;;5073213;28;20334;-76
2024/01/08 10:37:10;;;;;;;;;;;3.50;94.60;;;;;;5055075;28;19905;-78
2024/01/08 10:39:36;;;;;;;;;;;3.60;94.50;;;;;;5055323;28;19999;-76
2024/01/08 10:42:02;;;;;;;;;;;3.80;94.10;;;;;;5055249;28;20077;-76
2024/01/08 10:44:28;;;;;;;;;;;3.80;95.50;;;;;;5055758;28;19904;-76
2024/01/08 10:46:56;;;;;;;;;;;3.90;94.40;;;;;;5056191;28;19916;-76
2024/01/08 10:49:23;;;;;;;;;;;3.90;94.20;;;;;;5055848;28;19916;-76
2024/01/08 10:51:50;;;;;;;;;;;4.10;92.00;;;;;;5055706;28;19911;-76
2024/01/08 10:54:16;;;;;;;;;;;4.00;91.60;;;;;;5057054;28;19904;-76
2024/01/08 10:56:42;;;;;;;;;;;3.90;91.60;;;;;;5073693;28;19993;-76
2024/01/08 10:59:11;;;;;;;;;;;3.90;90.80;;;;;;5071478;28;19904;-76
2024/01/08 11:01:37;;;;;;;;;;;3.80;91.10;;;;;;5071481;28;20392;-76
2024/01/08 11:04:04;;;;;;;;;;;3.80;92.50;;;;;;5071940;28;19908;-76
2024/01/08 11:06:30;;;;;;;;;;;3.90;93.40;;;;;;5053714;28;20277;-76
2024/01/08 11:08:57;;;;;;;;;;;4.00;93.10;;;;;;5053672;28;19904;-76
2024/01/08 11:11:22;;;;;;;;;;;4.00;91.80;;;;;;5053882;28;19909;-76
2024/01/08 11:13:48;;;;;;;;;;;4.10;91.60;;;;;;5054560;28;19912;-76
2024/01/08 11:16:16;;;;;;;;;;;4.00;92.50;;;;;;5057759;28;19991;-76
2024/01/08 11:18:42;;;;;;;;;;;4.00;92.70;;;;;;5058054;28;19915;-76
2024/01/08 11:21:08;;;;;;;;;;;4.10;91.80;;;;;;5075451;28;19905;-75
2024/01/08 11:23:34;;;;;;;;;;;4.20;90.80;;;;;;5076632;28;19955;-76
2024/01/08 11:26:01;;;;;;;;;;;4.10;91.10;;;;;;5058403;28;19944;-76
2024/01/08 11:28:26;;;;;;;;;;;4.10;91.70;;;;;;5069614;28;19908;-76
2024/01/08 11:31:05;;;;;;;;;;;4.30;90.60;;;;;;5057457;28;19919;-75
2024/01/08 11:33:37;;;;;;;;;;;4.30;89.10;;;;;;5056393;28;20395;-76
2024/01/08 11:36:06;;;;;;;;;;;4.20;90.40;;;;;;5066153;28;20329;-76
2024/01/08 11:38:31;;;;;;;;;;;4.30;87.80;;;;;;5065143;28;19924;-76
2024/01/08 11:40:57;;;;;;;;;;;4.20;88.60;;;;;;5058848;28;19909;-76
2024/01/08 11:43:23;;;;;;;;;;;4.10;89.70;;;;;;5038713;28;20336;-76
2024/01/08 11:45:48;;;;;;;;;;;4.20;87.70;;;;;;5051450;28;19908;-76
2024/01/08 11:48:14;;;;;;;;;;;4.10;90.00;;;;;;5056330;28;19909;-77
2024/01/08 11:50:40;;;;;;;;;;;3.90;91.50;;;;;;5037635;28;19912;-76
2024/01/08 11:53:07;;;;;;;;;;;3.90;90.70;;;;;;5036721;28;19905;-76
2024/01/08 11:55:32;;;;;;;;;;;4.00;90.50;;;;;;5037227;28;19909;-76
2024/01/08 11:57:58;;;;;;;;;;;3.90;90.70;;;;;;5055892;28;20300;-76
2024/01/08 12:00:28;;;;;;;;;;;4.00;88.30;;;;;;5056924;28;19941;-76
2024/01/08 12:03:00;;;;;;;;;;;4.00;87.50;;;;;;5039167;28;19909;-77
2024/01/08 12:05:26;;;;;;;;;;;3.80;88.20;;;;;;5039103;28;19909;-76
2024/01/08 12:07:51;;;;;;;;;;;3.60;89.40;;;;;;5038661;28;19913;-76
2024/01/08 12:10:17;;;;;;;;;;;3.60;90.80;;;;;;5038482;28;20305;-76
2024/01/08 12:12:42;;;;;;;;;;;3.60;89.10;;;;;;5038149;28;20301;-76
2024/01/08 12:15:08;;;;;;;;;;;3.60;88.70;;;;;;5067438;28;19920;-76
2024/01/08 12:17:34;;;;;;;;;;;3.50;88.00;;;;;;5059150;28;19954;-76
2024/01/08 12:20:01;;;;;;;;;;;3.50;87.10;;;;;;5038863;28;20345;-75
2024/01/08 12:22:26;;;;;;;;;;;3.60;87.70;;;;;;5064368;28;19913;-76
2024/01/08 12:24:53;;;;;;;;;;;3.60;87.30;;;;;;5046065;28;20400;-76
2024/01/08 12:27:22;;;;;;;;;;;3.50;86.70;;;;;;5047748;28;19912;-76
2024/01/08 12:29:50;;;;;;;;;;;3.40;87.90;;;;;;5076354;28;19913;-76
2024/01/08 12:32:18;;;;;;;;;;;3.50;84.80;;;;;;5076683;28;19939;-76
2024/01/08 12:34:44;;;;;;;;;;;3.60;86.70;;;;;;5076400;28;19947;-75
2024/01/08 12:37:10;;;;;;;;;;;3.50;88.80;;;;;;5076556;28;19904;-76
2024/01/08 12:39:36;;;;;;;;;;;3.50;85.40;;;;;;5057828;28;19925;-76
2024/01/08 12:42:09;;;;;;;;;;;3.50;88.80;;;;;;5058811;28;19904;-76
2024/01/08 12:44:36;;;;;;;;;;;3.60;87.90;;;;;;5074608;28;19904;-76
2024/01/08 12:47:04;;;;;;;;;;;3.70;89.00;;;;;;5056037;28;19987;-76
2024/01/08 12:49:29;;;;;;;;;;;3.90;87.20;;;;;;5074563;28;19914;-76
2024/01/08 12:51:56;;;;;;;;;;;4.20;84.70;;;;;;5056600;28;19904;-76
2024/01/08 12:54:21;;;;;;;;;;;4.00;83.00;;;;;;5056776;28;19908;-76
2024/01/08 12:56:48;;;;;;;;;;;4.00;82.80;;;;;;5074948;28;19912;-76
2024/01/08 12:59:14;;;;;;;;;;;4.00;83.60;;;;;;5076175;28;19904;-76
2024/01/08 13:01:44;;;;;;;;;;;3.80;83.40;;;;;;5058971;28;19912;-76
2024/01/08 13:04:16;;;;;;;;;;;3.80;85.10;;;;;;5077792;28;19916;-76
2024/01/08 13:06:41;;;;;;;;;;;3.60;85.30;;;;;;5060149;28;19963;-77
2024/01/08 13:09:07;;;;;;;;;;;3.50;86.40;;;;;;5057235;28;19942;-76
2024/01/08 13:11:34;;;;;;;;;;;3.40;85.40;;;;;;5055305;28;19958;-76
2024/01/08 13:13:59;;;;;;;;;;;3.40;83.60;;;;;;5054825;28;19908;-76
2024/01/08 13:16:25;;;;;;;;;;;3.30;84.20;;;;;;5073115;28;19995;-76
2024/01/08 13:18:50;;;;;;;;;;;3.40;83.30;;;;;;5072929;28;19947;-76
2024/01/08 13:21:16;;;;;;;;;;;3.30;85.30;;;;;;5073039;28;19962;-75
2024/01/08 13:23:42;;;;;;;;;;;3.40;84.90;;;;;;5072889;28;20436;-76
2024/01/08 13:26:12;;;;;;;;;;;3.40;84.00;;;;;;5054905;28;19977;-76
2024/01/08 13:28:40;;;;;;;;;;;3.40;84.40;;;;;;5073190;28;19904;-75
2024/01/08 13:31:06;;;;;;;;;;;3.40;83.00;;;;;;5055220;28;20419;-76
2024/01/08 13:33:32;;;;;;;;;;;3.50;80.80;;;;;;5073754;28;19908;-76
2024/01/08 13:35:58;;;;;;;;;;;3.60;79.60;;;;;;5055023;28;20011;-74
2024/01/08 13:38:25;;;;;;;;;;;3.50;82.90;;;;;;5054815;28;20379;-75
2024/01/08 13:40:54;;;;;;;;;;;3.60;81.30;;;;;;5055982;28;19946;-75
2024/01/08 13:43:20;;;;;;;;;;;3.50;81.70;;;;;;5054972;28;20002;-75
2024/01/08 13:45:45;;;;;;;;;;;3.60;81.50;;;;;;5055005;28;19926;-76
2024/01/08 13:48:11;;;;;;;;;;;3.70;78.70;;;;;;5072735;28;19908;-75
2024/01/08 13:50:37;;;;;;;;;;;3.80;77.90;;;;;;5072701;28;19909;-75
2024/01/08 13:53:03;;;;;;;;;;;3.90;76.10;;;;;;5072834;28;19955;-76
2024/01/08 13:55:29;;;;;;;;;;;3.90;75.20;;;;;;5072620;28;19911;-76
2024/01/08 13:57:55;;;;;;;;;;;3.90;77.00;;;;;;5072883;28;19905;-75
2024/01/08 14:00:21;;;;;;;;;;;3.90;74.50;;;;;;5054831;28;19944;-76
2024/01/08 14:02:46;;;;;;;;;;;3.90;75.10;;;;;;5054511;28;20373;-75
2024/01/08 14:05:12;;;;;;;;;;;3.90;72.10;;;;;;5055278;28;20364;-76
2024/01/08 14:07:37;;;;;;;;;;;3.80;72.60;;;;;;5054911;28;19912;-75
2024/01/08 14:10:04;;;;;;;;;;;3.70;74.10;;;;;;5073055;28;19931;-77
2024/01/08 14:12:29;;;;;;;;;;;3.60;73.10;;;;;;5054306;28;20503;-76
2024/01/08 14:14:55;;;;;;;;;;;3.60;70.80;;;;;;5055084;28;19956;-75
2024/01/08 14:17:20;;;;;;;;;;;3.60;71.60;;;;;;5055599;28;19954;-75
2024/01/08 14:19:46;;;;;;;;;;;3.50;71.80;;;;;;5055971;28;19943;-76
2024/01/08 14:22:11;;;;;;;;;;;3.40;72.30;;;;;;5056015;28;19940;-76
2024/01/08 14:24:37;;;;;;;;;;;3.30;74.50;;;;;;5056183;28;19909;-76